Time;durP1;ratioP1;P1;durP2;ratioP2;P2;SDS_P1;SDS_P2;PMS_P1;PMS_P2;Temp;Humidity;BMP_temperature;BMP_pressure;BME280_temperature;BME280_humidity;BME280_pressure;Samples;Min_cycle;Max_cycle;Signal;HPM_P1;HPM_P2
2022/03/22 00:00:14;;;;;;;28.50;16.70;;;;;;;11.61;43.56;102085.66;5127144;27;20202;-66
2022/03/22 00:02:43;;;;;;;25.73;16.13;;;;;;;11.53;43.53;102090.69;5118192;27;20325;-65
2022/03/22 00:05:11;;;;;;;27.37;16.20;;;;;;;11.54;43.25;102094.19;5118394;27;20205;-65
2022/03/22 00:07:39;;;;;;;26.77;16.73;;;;;;;11.48;42.99;102090.22;5122076;28;20297;-65
2022/03/22 00:10:08;;;;;;;22.23;15.80;;;;;;;11.51;42.92;102090.00;5118578;27;20239;-65
2022/03/22 00:12:53;;;;;;;23.57;15.63;;;;;;;11.45;42.87;102090.44;5120025;27;20204;-65
2022/03/22 00:15:21;;;;;;;30.60;16.40;;;;;;;11.35;43.10;102089.41;5122154;27;20791;-65
2022/03/22 00:18:10;;;;;;;25.93;15.47;;;;;;;11.42;42.78;102096.00;5126218;27;20201;-65
2022/03/22 00:20:38;;;;;;;23.93;14.60;;;;;;;11.32;42.83;102090.50;5129285;27;20226;-65
2022/03/22 00:23:06;;;;;;;31.20;15.57;;;;;;;11.33;43.13;102086.03;5127645;27;20582;-65
2022/03/22 00:25:34;;;;;;;24.83;15.23;;;;;;;11.30;42.79;102092.44;5126281;27;20336;-65
2022/03/22 00:28:01;;;;;;;25.47;15.30;;;;;;;11.28;42.45;102086.38;5123010;27;20212;-65
2022/03/22 00:30:32;;;;;;;22.03;14.60;;;;;;;11.28;42.39;102088.19;5125220;27;20252;-65
2022/03/22 00:33:02;;;;;;;23.77;14.93;;;;;;;11.29;42.45;102089.88;5124008;27;20222;-65
2022/03/22 00:35:36;;;;;;;22.87;15.10;;;;;;;11.26;42.44;102090.09;5125271;27;20211;-65
2022/03/22 00:38:06;;;;;;;26.93;14.97;;;;;;;11.23;42.61;102090.34;5122500;27;20599;-65
2022/03/22 00:40:34;;;;;;;26.17;15.27;;;;;;;11.25;42.71;102093.75;5122383;27;20687;-65
2022/03/22 00:43:02;;;;;;;26.77;15.33;;;;;;;11.16;42.79;102094.41;5121149;27;20258;-65
2022/03/22 00:45:32;;;;;;;23.40;14.57;;;;;;;11.14;42.98;102099.84;5123945;27;20224;-65
2022/03/22 00:48:03;;;;;;;26.57;14.90;;;;;;;11.09;42.93;102093.13;5123319;27;20207;-65
2022/03/22 00:50:35;;;;;;;26.27;14.87;;;;;;;11.05;42.58;102103.16;5123405;27;20230;-65
2022/03/22 00:53:05;;;;;;;26.07;16.10;;;;;;;11.04;42.76;102092.66;5122281;27;20282;-65
2022/03/22 00:55:33;;;;;;;25.83;15.93;;;;;;;11.00;42.91;102088.50;5123210;27;20206;-65
2022/03/22 00:58:02;;;;;;;25.93;16.50;;;;;;;10.93;43.01;102088.09;5122112;27;20202;-65
2022/03/22 01:00:31;;;;;;;23.77;14.53;;;;;;;10.96;43.09;102087.91;5125054;27;20292;-65
2022/03/22 01:03:01;;;;;;;24.07;14.60;;;;;;;10.92;43.00;102095.22;5122338;27;20202;-65
2022/03/22 01:05:32;;;;;;;21.30;13.37;;;;;;;10.87;43.17;102092.06;5122323;27;20202;-65
2022/03/22 01:08:02;;;;;;;28.43;16.10;;;;;;;10.84;43.02;102086.97;5120367;27;20284;-65
2022/03/22 01:10:32;;;;;;;27.23;14.30;;;;;;;10.84;42.96;102079.00;5123459;27;20271;-65
2022/03/22 01:13:02;;;;;;;29.30;14.40;;;;;;;10.85;42.79;102078.06;5121284;27;20627;-65
2022/03/22 01:15:33;;;;;;;28.83;14.70;;;;;;;10.75;42.80;102087.63;5123284;27;20237;-65
2022/03/22 01:18:05;;;;;;;23.27;13.40;;;;;;;10.80;42.93;102088.16;5122487;27;20715;-65
2022/03/22 01:20:35;;;;;;;23.53;14.00;;;;;;;10.80;42.71;102082.84;5121989;27;20236;-65
2022/03/22 01:23:07;;;;;;;25.17;15.17;;;;;;;10.80;42.51;102082.84;5117486;27;20206;-65
2022/03/22 01:25:36;;;;;;;23.73;14.50;;;;;;;10.79;42.51;102075.00;5119640;27;20295;-65
2022/03/22 01:28:07;;;;;;;22.50;15.00;;;;;;;10.73;42.87;102076.28;5130592;27;20206;-65
2022/03/22 01:30:36;;;;;;;23.43;13.97;;;;;;;10.71;42.79;102078.22;5124661;27;20233;-65
2022/03/22 01:33:05;;;;;;;24.47;14.63;;;;;;;10.73;42.68;102072.78;5121730;27;20245;-65
2022/03/22 01:35:34;;;;;;;24.17;14.13;;;;;;;10.68;42.71;102077.56;5122345;27;20574;-65
2022/03/22 01:38:02;;;;;;;24.00;15.10;;;;;;;10.60;42.73;102064.84;5127056;27;20201;-65
2022/03/22 01:40:31;;;;;;;22.97;13.97;;;;;;;10.61;42.71;102066.56;5125648;27;20201;-65
2022/03/22 01:42:59;;;;;;;24.80;13.47;;;;;;;10.60;42.60;102066.66;5126896;27;20198;-65
2022/03/22 01:45:28;;;;;;;22.13;13.87;;;;;;;10.55;42.85;102067.00;5125966;27;20268;-65
2022/03/22 01:47:59;;;;;;;22.70;14.13;;;;;;;10.53;42.39;102058.28;5127833;27;20720;-65
2022/03/22 01:50:29;;;;;;;24.23;14.50;;;;;;;10.54;42.55;102060.00;5119356;27;20244;-65
2022/03/22 01:52:59;;;;;;;28.23;14.03;;;;;;;10.45;42.25;102068.59;5124264;27;20202;-66
2022/03/22 01:55:28;;;;;;;21.23;13.77;;;;;;;10.04;43.53;102058.19;5120713;27;20572;-64
2022/03/22 01:57:56;;;;;;;26.33;13.80;;;;;;;10.24;43.17;102067.44;5126990;27;20205;-65
2022/03/22 02:00:25;;;;;;;23.43;13.57;;;;;;;10.34;42.84;102055.25;5127176;27;20540;-65
2022/03/22 02:05:55;;;;;;;24.50;13.80;;;;;;;10.35;42.85;102051.66;5122397;27;20296;-65
2022/03/22 02:08:27;;;;;;;20.90;13.40;;;;;;;10.38;42.57;102060.22;5124395;27;20288;-65
2022/03/22 02:10:56;;;;;;;21.50;12.83;;;;;;;10.33;42.55;102053.53;5123212;27;20274;-65
2022/03/22 02:13:24;;;;;;;23.20;13.80;;;;;;;10.34;42.53;102049.94;5129636;27;20209;-65
2022/03/22 02:15:55;;;;;;;29.30;14.10;;;;;;;10.38;42.43;102043.47;5128826;27;20266;-65
2022/03/22 02:18:25;;;;;;;23.33;13.97;;;;;;;10.23;42.58;102045.38;5127894;27;20620;-65
2022/03/22 02:20:53;;;;;;;23.53;13.70;;;;;;;10.29;42.48;102044.13;5124845;27;20197;-65
2022/03/22 02:23:26;;;;;;;20.77;13.77;;;;;;;10.27;42.64;102041.59;5124689;27;20210;-65
2022/03/22 02:25:55;;;;;;;21.17;13.63;;;;;;;10.24;42.53;102043.59;5123122;27;20662;-65
2022/03/22 02:28:23;;;;;;;20.80;13.53;;;;;;;10.25;42.67;102047.94;5126731;27;20278;-65
2022/03/22 02:30:52;;;;;;;22.03;14.70;;;;;;;10.22;42.82;102041.03;5124014;27;20306;-65
2022/03/22 02:33:21;;;;;;;23.70;14.03;;;;;;;10.18;42.67;102036.94;5126331;27;20218;-65
2022/03/22 02:35:49;;;;;;;24.23;14.53;;;;;;;10.16;42.65;102039.66;5125815;27;20681;-65
2022/03/22 02:38:17;;;;;;;23.60;13.40;;;;;;;10.15;42.72;102040.59;5125906;27;20204;-65
2022/03/22 02:40:46;;;;;;;20.03;13.17;;;;;;;9.80;43.46;102044.84;5125963;27;20233;-65
2022/03/22 02:43:15;;;;;;;24.30;14.00;;;;;;;9.94;42.92;102033.31;5119334;27;20297;-65
2022/03/22 02:45:43;;;;;;;26.03;14.73;;;;;;;9.87;43.29;102038.16;5124876;27;20229;-65
2022/03/22 02:48:11;;;;;;;20.97;13.00;;;;;;;9.99;42.77;102039.97;5125879;27;20208;-65
2022/03/22 02:50:39;;;;;;;21.07;12.73;;;;;;;10.02;42.69;102038.91;5124593;27;20212;-65
2022/03/22 02:53:07;;;;;;;21.97;14.27;;;;;;;10.01;42.85;102039.88;5122292;27;20213;-65
2022/03/22 02:55:36;;;;;;;22.47;13.10;;;;;;;9.85;42.96;102034.75;5121007;27;20299;-65
2022/03/22 02:58:04;;;;;;;20.83;13.10;;;;;;;9.92;42.86;102036.06;5117313;27;20258;-65
2022/03/22 03:00:34;;;;;;;22.83;13.53;;;;;;;9.95;42.95;102035.81;5120200;27;20509;-65
2022/03/22 03:03:03;;;;;;;22.57;13.63;;;;;;;9.92;42.83;102046.66;5119617;27;20205;-65
2022/03/22 03:05:32;;;;;;;22.57;13.27;;;;;;;9.91;43.10;102039.66;5122192;27;20212;-65
2022/03/22 03:08:00;;;;;;;32.43;14.47;;;;;;;9.85;43.20;102040.06;5123325;27;20212;-65
2022/03/22 03:10:28;;;;;;;25.97;13.33;;;;;;;9.82;43.00;102048.25;5123906;27;20208;-65
2022/03/22 03:13:00;;;;;;;20.67;14.07;;;;;;;9.72;43.50;102045.38;5124200;27;20265;-65
2022/03/22 03:15:28;;;;;;;23.17;14.03;;;;;;;9.81;43.29;102046.53;5125514;27;20233;-65
2022/03/22 03:17:58;;;;;;;21.97;12.97;;;;;;;9.79;43.32;102046.63;5124995;27;20244;-65
2022/03/22 03:20:26;;;;;;;21.27;13.37;;;;;;;9.76;43.26;102043.38;5123684;27;21024;-65
2022/03/22 03:22:54;;;;;;;23.93;13.90;;;;;;;9.59;43.47;102046.28;5122243;27;20205;-65
2022/03/22 03:25:22;;;;;;;23.70;13.43;;;;;;;9.66;43.56;102044.94;5125992;27;20212;-65
2022/03/22 03:27:50;;;;;;;20.57;13.27;;;;;;;9.69;43.43;102050.00;5119806;27;20233;-65
2022/03/22 03:30:18;;;;;;;21.30;12.87;;;;;;;9.70;43.11;102051.72;5126056;27;20263;-65
2022/03/22 03:32:45;;;;;;;23.07;13.37;;;;;;;9.70;43.14;102049.06;5124701;27;20243;-65
2022/03/22 03:35:15;;;;;;;22.10;12.23;;;;;;;9.63;43.10;102047.78;5122291;27;20219;-65
2022/03/22 03:37:43;;;;;;;21.43;12.43;;;;;;;9.62;43.27;102048.72;5120768;27;20213;-65
2022/03/22 03:40:12;;;;;;;21.90;13.80;;;;;;;9.57;43.10;102048.22;5123948;27;20568;-65
2022/03/22 03:42:45;;;;;;;23.30;13.53;;;;;;;9.63;43.07;102055.72;5124886;27;20204;-65
2022/03/22 03:48:00;;;;;;;21.40;13.07;;;;;;;9.53;43.51;102050.19;5124867;27;20295;-65
2022/03/22 03:50:39;;;;;;;21.90;13.10;;;;;;;9.53;43.26;102049.34;5125094;27;20197;-64
2022/03/22 03:53:07;;;;;;;23.83;12.97;;;;;;;9.54;43.29;102054.56;5122516;27;20239;-64
2022/03/22 03:55:34;;;;;;;22.67;13.03;;;;;;;9.50;43.16;102054.88;5123187;27;20247;-64
2022/03/22 03:58:02;;;;;;;21.93;12.80;;;;;;;9.51;43.19;102056.53;5120657;27;20692;-64
2022/03/22 04:00:32;;;;;;;20.03;12.27;;;;;;;9.51;43.25;102053.91;5123867;27;20798;-64
2022/03/22 04:02:59;;;;;;;25.63;13.07;;;;;;;9.49;43.19;102053.19;5121128;27;20200;-65
2022/03/22 04:05:27;;;;;;;22.43;12.87;;;;;;;9.48;43.28;102051.47;5125076;27;20724;-65
2022/03/22 04:08:14;;;;;;;22.40;12.37;;;;;;;9.44;43.34;102061.41;5125419;27;20272;-65
2022/03/22 04:10:43;;;;;;;24.10;12.80;;;;;;;9.42;43.10;102061.50;5125201;28;20200;-65
2022/03/22 04:13:12;;;;;;;21.60;12.47;;;;;;;9.42;43.20;102060.66;5122918;28;20763;-65
2022/03/22 04:15:42;;;;;;;21.03;13.03;;;;;;;9.39;43.06;102059.09;5124665;28;20319;-65
2022/03/22 04:18:09;;;;;;;22.97;12.57;;;;;;;9.41;42.97;102067.75;5124476;28;20651;-65
2022/03/22 04:20:37;;;;;;;20.43;11.97;;;;;;;9.39;43.10;102063.53;5123523;28;20201;-65
2022/03/22 04:23:25;;;;;;;22.80;12.83;;;;;;;9.31;43.30;102065.84;5123599;28;20304;-65
2022/03/22 04:26:13;;;;;;;19.60;13.07;;;;;;;9.28;43.09;102058.94;5123435;28;20299;-65
2022/03/22 04:34:30;;;;;;;21.63;11.70;;;;;;;9.18;43.39;102057.00;5122184;27;20298;-65
2022/03/22 04:37:06;;;;;;;21.23;12.20;;;;;;;9.23;43.40;102053.13;5127012;27;20320;-65
2022/03/22 04:39:36;;;;;;;21.80;11.60;;;;;;;9.20;43.32;102063.03;5124452;28;20204;-64
2022/03/22 04:42:04;;;;;;;17.00;11.67;;;;;;;9.24;43.22;102067.16;5124227;28;20295;-64
2022/03/22 04:44:35;;;;;;;19.70;11.97;;;;;;;9.21;43.37;102057.66;5124403;28;20244;-64
2022/03/22 04:47:06;;;;;;;20.97;12.30;;;;;;;9.18;43.62;102059.63;5126095;27;20229;-64
2022/03/22 04:49:36;;;;;;;19.13;12.57;;;;;;;9.12;43.50;102060.91;5123692;28;20521;-64
2022/03/22 04:57:36;;;;;;;21.40;11.67;;;;;;;9.10;43.43;102067.22;5121976;27;20215;-65
2022/03/22 05:00:07;;;;;;;26.43;12.20;;;;;;;8.95;43.94;102059.34;5121341;27;20208;-65
2022/03/22 05:02:35;;;;;;;19.43;12.27;;;;;;;8.99;43.54;102065.28;5125844;27;24276;-64
2022/03/22 05:05:03;;;;;;;19.47;12.33;;;;;;;8.95;43.65;102062.00;5124740;27;20214;-65
2022/03/22 05:07:31;;;;;;;20.70;12.07;;;;;;;8.97;43.77;102061.91;5125090;27;20579;-64
2022/03/22 05:10:00;;;;;;;20.07;12.40;;;;;;;8.90;44.15;102068.50;5122686;27;20228;-64
2022/03/22 05:12:27;;;;;;;20.93;13.33;;;;;;;8.87;43.99;102074.88;5126784;27;20473;-66
2022/03/22 05:14:55;;;;;;;25.60;13.70;;;;;;;8.91;43.95;102072.84;5123258;27;20244;-65
2022/03/22 05:17:23;;;;;;;18.90;12.67;;;;;;;8.92;43.95;102079.84;5122791;27;20650;-65
2022/03/22 05:19:52;;;;;;;20.40;13.07;;;;;;;8.90;43.99;102082.59;5123119;27;20645;-64
2022/03/22 05:22:20;;;;;;;24.57;13.17;;;;;;;8.91;43.85;102086.94;5123023;27;20252;-64
2022/03/22 05:24:48;;;;;;;25.23;12.67;;;;;;;8.91;43.98;102089.59;5125330;27;20217;-65
2022/03/22 05:27:18;;;;;;;21.67;12.70;;;;;;;8.89;44.13;102090.63;5130008;27;20647;-65
2022/03/22 05:29:45;;;;;;;20.27;12.50;;;;;;;8.88;44.22;102107.47;5129753;27;20658;-65
2022/03/22 05:32:13;;;;;;;21.60;13.53;;;;;;;8.84;44.48;102098.00;5123793;27;20263;-65
2022/03/22 05:34:41;;;;;;;20.43;12.80;;;;;;;8.81;44.58;102098.19;5131114;27;20270;-65
2022/03/22 05:37:10;;;;;;;21.70;13.20;;;;;;;8.80;44.57;102101.78;5119565;27;20243;-65
2022/03/22 05:39:38;;;;;;;21.47;12.90;;;;;;;8.82;44.61;102100.75;5125281;27;20298;-65
2022/03/22 05:42:08;;;;;;;28.73;12.37;;;;;;;8.80;44.76;102099.13;5128053;27;20207;-65
2022/03/22 05:44:39;;;;;;;21.30;12.83;;;;;;;8.84;44.88;102103.31;5127447;27;20203;-65
2022/03/22 05:47:08;;;;;;;19.20;13.17;;;;;;;8.80;44.75;102101.78;5124345;27;20231;-65
2022/03/22 05:49:37;;;;;;;22.73;12.73;;;;;;;8.78;44.90;102098.41;5123403;27;20341;-65
2022/03/22 05:52:06;;;;;;;23.03;13.63;;;;;;;8.79;44.76;102105.41;5126218;27;20649;-64
2022/03/22 05:54:35;;;;;;;24.40;13.40;;;;;;;8.77;44.95;102102.84;5123803;27;20650;-65
2022/03/22 05:57:02;;;;;;;21.43;12.17;;;;;;;8.74;45.19;102102.19;5124975;27;20211;-65
2022/03/22 05:59:30;;;;;;;22.23;13.57;;;;;;;8.76;44.87;102105.59;5124059;27;20641;-65
2022/03/22 06:01:59;;;;;;;20.83;12.73;;;;;;;8.75;44.83;102104.75;5125809;27;20668;-66
2022/03/22 06:04:27;;;;;;;23.30;12.67;;;;;;;8.78;45.04;102101.06;5120804;27;20439;-65
2022/03/22 06:06:55;;;;;;;22.63;13.23;;;;;;;8.81;44.97;102111.44;5126919;27;20632;-65
2022/03/22 06:09:23;;;;;;;21.93;12.63;;;;;;;8.81;45.18;102112.28;5121165;27;20218;-65
2022/03/22 06:11:53;;;;;;;22.83;12.70;;;;;;;8.81;45.10;102103.50;5123526;27;20314;-66
2022/03/22 06:14:20;;;;;;;24.90;13.07;;;;;;;8.84;44.88;102108.59;5128963;27;20259;-65
2022/03/22 06:16:48;;;;;;;22.77;14.00;;;;;;;8.86;45.13;102114.66;5121912;27;20629;-66
2022/03/22 06:19:21;;;;;;;23.73;13.37;;;;;;;8.82;45.01;102105.19;5120351;27;20210;-65
2022/03/22 06:21:49;;;;;;;25.63;13.57;;;;;;;8.84;45.12;102103.31;5123043;27;20208;-66
2022/03/22 06:24:17;;;;;;;24.20;12.13;;;;;;;8.86;45.19;102112.00;5129579;27;20203;-65
2022/03/22 06:26:47;;;;;;;21.90;13.07;;;;;;;8.83;45.29;102113.03;5124842;27;20219;-64
2022/03/22 06:29:15;;;;;;;24.20;12.07;;;;;;;8.85;45.50;102107.66;5123063;27;20300;-64
2022/03/22 06:31:44;;;;;;;20.93;13.33;;;;;;;8.90;45.45;102103.75;5122354;27;20204;-65
2022/03/22 06:34:14;;;;;;;22.77;12.87;;;;;;;8.86;45.25;102112.00;5122919;27;20325;-65
2022/03/22 06:36:44;;;;;;;21.47;13.23;;;;;;;8.91;45.29;102110.75;5124680;27;20200;-65
2022/03/22 06:39:12;;;;;;;21.90;12.60;;;;;;;8.95;45.10;102122.84;5119631;27;20213;-65
2022/03/22 06:41:39;;;;;;;22.73;13.27;;;;;;;8.97;45.20;102122.75;5124858;27;20210;-65
2022/03/22 06:44:07;;;;;;;21.93;13.40;;;;;;;9.03;45.46;102119.72;5123520;27;20503;-65
2022/03/22 06:46:35;;;;;;;21.30;13.23;;;;;;;9.07;45.25;102127.34;5121108;27;20272;-65
2022/03/22 06:49:03;;;;;;;20.33;13.33;;;;;;;9.02;45.40;102125.94;5124406;27;20680;-65
2022/03/22 06:51:39;;;;;;;20.87;13.00;;;;;;;9.08;45.29;102122.91;5123746;27;20652;-65
2022/03/22 06:54:09;;;;;;;21.63;13.10;;;;;;;9.12;45.44;102126.22;5121246;27;20231;-65
2022/03/22 06:56:36;;;;;;;24.57;13.70;;;;;;;9.13;45.47;102122.63;5121593;27;20208;-65
2022/03/22 06:59:05;;;;;;;21.90;13.10;;;;;;;9.16;45.53;102120.59;5120803;27;20229;-66
2022/03/22 07:01:33;;;;;;;24.67;13.70;;;;;;;9.19;45.65;102122.22;5123279;27;20686;-64
2022/03/22 07:04:01;;;;;;;24.83;14.23;;;;;;;9.07;46.02;102121.19;5119886;27;20512;-65
2022/03/22 07:06:35;;;;;;;25.90;16.40;;;;;;;9.21;45.80;102122.97;5121594;27;20472;-65
2022/03/22 07:09:03;;;;;;;22.33;13.63;;;;;;;9.20;45.67;102122.13;5123617;27;20717;-65
2022/03/22 07:14:18;;;;;;;21.43;13.83;;;;;;;9.07;45.91;102139.72;5116701;27;20240;-66
2022/03/22 07:16:47;;;;;;;22.50;13.63;;;;;;;9.09;46.23;102139.63;5124355;27;20731;-65
2022/03/22 07:19:14;;;;;;;24.80;14.03;;;;;;;9.16;46.28;102136.50;5126477;27;20201;-64
2022/03/22 07:21:43;;;;;;;22.57;13.97;;;;;;;9.25;46.19;102135.91;5124661;27;20221;-65
2022/03/22 07:24:11;;;;;;;23.53;14.80;;;;;;;9.37;45.98;102144.84;5121852;27;20492;-64
2022/03/22 07:26:42;;;;;;;25.23;14.53;;;;;;;9.38;46.79;102135.97;5127971;27;20250;-65
2022/03/22 07:29:10;;;;;;;24.10;13.37;;;;;;;9.36;46.79;102144.00;5122778;27;20811;-65
2022/03/22 07:31:38;;;;;;;23.10;13.83;;;;;;;9.52;45.74;102143.84;5124804;27;20786;-65
2022/03/22 07:34:06;;;;;;;24.67;14.63;;;;;;;9.40;45.49;102140.22;5122417;27;20281;-66
2022/03/22 07:36:36;;;;;;;24.57;15.23;;;;;;;9.52;46.02;102138.53;5125305;27;20554;-64
2022/03/22 07:39:25;;;;;;;22.97;14.33;;;;;;;9.62;46.03;102139.63;5125142;27;20205;-66
2022/03/22 07:41:54;;;;;;;28.33;15.37;;;;;;;9.16;46.48;102136.50;5125124;27;20510;-66
2022/03/22 07:44:21;;;;;;;23.63;14.70;;;;;;;9.40;46.28;102132.28;5123608;27;20201;-67
2022/03/22 07:47:02;;;;;;;23.80;14.87;;;;;;;9.71;45.61;102138.19;5125428;27;20225;-67
2022/03/22 07:55:01;;;;;;;24.87;14.83;;;;;;;10.01;45.88;102140.59;5119778;27;20221;-67
2022/03/22 07:57:30;;;;;;;20.90;13.97;;;;;;;10.17;45.27;102134.16;5125120;27;20205;-67
2022/03/22 07:59:58;;;;;;;23.60;14.13;;;;;;;10.20;45.05;102135.75;5127804;27;20233;-65
2022/03/22 08:02:26;;;;;;;20.83;13.10;;;;;;;10.31;44.71;102127.03;5127121;27;20257;-66
2022/03/22 08:04:54;;;;;;;24.20;14.60;;;;;;;10.27;44.87;102129.06;5122696;27;20609;-66
2022/03/22 08:07:22;;;;;;;23.83;14.63;;;;;;;10.34;44.73;102127.69;5125530;27;20211;-68
2022/03/22 08:09:50;;;;;;;24.17;14.30;;;;;;;10.40;44.97;102126.41;5126367;27;20209;-66
2022/03/22 08:12:18;;;;;;;22.03;14.50;;;;;;;10.62;44.59;102123.97;5127978;28;20590;-66
2022/03/22 08:14:47;;;;;;;26.70;14.43;;;;;;;10.74;43.57;102135.50;5127293;28;20234;-67
2022/03/22 08:17:14;;;;;;;25.07;14.80;;;;;;;10.77;43.26;102141.44;5121536;28;20229;-67
2022/03/22 08:19:42;;;;;;;27.67;14.90;;;;;;;10.84;43.36;102147.16;5127996;28;20284;-67
2022/03/22 08:22:10;;;;;;;23.10;14.37;;;;;;;11.02;43.65;102160.91;5128014;28;20211;-65
2022/03/22 08:24:38;;;;;;;27.50;14.17;;;;;;;11.14;42.58;102157.41;5126067;28;20476;-68
2022/03/22 08:27:07;;;;;;;23.40;15.30;;;;;;;11.42;42.67;102154.44;5132863;27;20379;-66
2022/03/22 08:29:35;;;;;;;25.13;15.63;;;;;;;14.79;37.57;102152.00;5127536;28;20741;-66
2022/03/22 08:32:05;;;;;;;28.80;15.47;;;;;;;21.94;26.81;102148.50;5127957;27;20204;-65
2022/03/22 08:34:32;;;;;;;25.80;14.83;;;;;;;23.22;24.20;102139.13;5130560;27;20508;-66
2022/03/22 08:39:42;;;;;;;25.73;14.37;;;;;;;26.82;20.24;102147.34;5130456;27;20669;-66
2022/03/22 08:42:10;;;;;;;22.57;14.53;;;;;;;27.54;19.55;102144.28;5129552;27;20304;-68
2022/03/22 08:44:40;;;;;;;23.77;16.50;;;;;;;28.29;19.18;102136.13;5128936;27;20793;-66
2022/03/22 08:47:09;;;;;;;20.10;15.63;;;;;;;28.60;18.81;102135.16;5131360;27;20293;-67
2022/03/22 08:49:37;;;;;;;26.70;17.00;;;;;;;29.96;17.51;102132.66;5127533;27;20209;-66
2022/03/22 08:52:06;;;;;;;28.30;16.73;;;;;;;29.61;17.85;102139.94;5131237;27;20294;-66
2022/03/22 08:54:33;;;;;;;30.45;16.20;;;;;;;30.15;17.15;102138.84;5130795;27;20247;-67
2022/03/22 08:57:01;;;;;;;20.58;14.77;;;;;;;30.38;17.17;102138.00;5132017;27;20657;-67
2022/03/22 08:59:29;;;;;;;23.55;15.48;;;;;;;31.18;16.44;102138.91;5130409;27;20208;-67
2022/03/22 09:01:57;;;;;;;20.30;15.25;;;;;;;31.11;16.42;102140.13;5131204;27;20216;-68
2022/03/22 09:07:14;;;;;;;23.50;15.60;;;;;;;32.65;14.94;102126.72;5130934;27;20215;-68
2022/03/22 09:09:41;;;;;;;23.52;16.23;;;;;;;33.24;15.11;102125.84;5129476;27;20592;-67
2022/03/22 09:12:12;;;;;;;23.33;15.90;;;;;;;31.95;15.55;102117.22;5130797;27;20728;-68
2022/03/22 09:14:40;;;;;;;32.78;16.00;;;;;;;33.18;14.97;102124.06;5127148;27;20719;-67
2022/03/22 09:17:07;;;;;;;19.80;15.35;;;;;;;33.83;14.46;102117.56;5125831;27;20698;-67
2022/03/22 09:19:37;;;;;;;20.25;15.57;;;;;;;33.11;14.21;102117.97;5120788;27;20205;-66
2022/03/22 09:22:24;;;;;;;17.73;13.98;;;;;;;32.18;14.76;102116.25;5127782;27;20674;-66
2022/03/22 09:24:53;;;;;;;21.05;15.48;;;;;;;29.02;17.93;102122.50;5120194;27;20216;-64
2022/03/22 09:27:20;;;;;;;19.88;15.73;;;;;;;29.94;16.83;102121.13;5135468;27;20335;-63
2022/03/22 09:29:48;;;;;;;19.13;16.05;;;;;;;32.26;14.95;102115.81;5127741;27;20277;-62
2022/03/22 09:32:16;;;;;;;20.88;15.23;;;;;;;27.74;18.15;102124.22;5128158;27;20668;-64
2022/03/22 09:34:45;;;;;;;24.35;15.30;;;;;;;26.90;19.21;102128.88;5126016;27;20273;-65
2022/03/22 09:37:16;;;;;;;18.85;16.08;;;;;;;29.84;17.19;102110.72;5128816;27;20233;-65
2022/03/22 09:39:45;;;;;;;24.20;15.07;;;;;;;27.80;18.35;102107.81;5127407;27;20258;-64
2022/03/22 09:42:13;;;;;;;21.85;16.15;;;;;;;26.08;19.67;102124.03;5125438;27;20725;-64
2022/03/22 09:44:41;;;;;;;19.85;15.18;;;;;;;26.06;20.11;102123.41;5126986;27;20729;-63
2022/03/22 09:47:11;;;;;;;21.40;16.15;;;;;;;26.53;20.07;102111.44;5129610;27;20669;-64
2022/03/22 09:49:38;;;;;;;20.17;15.65;;;;;;;26.27;19.23;102110.66;5127194;27;20221;-64
2022/03/22 09:52:11;;;;;;;19.38;15.43;;;;;;;26.92;18.57;102115.06;5126730;27;20531;-64
2022/03/22 09:54:40;;;;;;;21.25;15.80;;;;;;;27.17;18.17;102109.72;5125543;27;20331;-64
2022/03/22 09:57:08;;;;;;;19.88;15.27;;;;;;;26.99;19.01;102105.00;5123564;27;20404;-64
2022/03/22 09:59:37;;;;;;;22.00;15.88;;;;;;;31.21;15.90;102102.81;5126874;27;20308;-64
2022/03/22 10:02:06;;;;;;;20.00;15.90;;;;;;;26.31;18.94;102110.03;5125066;27;20658;-64
2022/03/22 10:04:38;;;;;;;17.23;15.43;;;;;;;24.80;19.91;102112.50;5121478;27;20208;-64
2022/03/22 10:07:07;;;;;;;18.23;15.00;;;;;;;29.78;16.51;102105.38;5123636;27;20208;-68
2022/03/22 10:09:39;;;;;;;15.88;13.93;;;;;;;31.47;15.73;102098.59;5132134;27;20588;-69
2022/03/22 10:12:10;;;;;;;19.90;15.52;;;;;;;32.19;14.57;102101.44;5130128;27;20209;-68
2022/03/22 10:14:39;;;;;;;18.52;15.38;;;;;;;28.58;17.58;102102.66;5127337;27;20727;-68
2022/03/22 10:17:12;;;;;;;19.80;15.75;;;;;;;27.41;18.92;102102.66;5130019;27;20579;-67
2022/03/22 10:19:45;;;;;;;20.88;15.60;;;;;;;31.48;14.66;102100.25;5130691;27;20201;-67
2022/03/22 10:22:14;;;;;;;25.10;15.93;;;;;;;34.05;13.90;102086.31;5130628;27;20265;-68
2022/03/22 10:24:44;;;;;;;19.77;15.10;;;;;;;34.27;13.61;102089.78;5128571;27;20283;-66
2022/03/22 10:27:24;;;;;;;21.55;14.90;;;;;;;33.66;13.54;102083.00;5129020;27;20206;-67
2022/03/22 10:30:17;;;;;;;40.55;15.98;;;;;;;29.20;15.69;102092.41;5130701;27;20637;-67
2022/03/22 10:32:51;;;;;;;16.45;14.75;;;;;;;30.14;16.57;102096.16;5129842;27;20203;-67
2022/03/22 10:35:22;;;;;;;26.10;16.58;;;;;;;29.97;16.02;102093.31;5127228;27;20222;-67
2022/03/22 10:37:55;;;;;;;19.40;15.68;;;;;;;29.07;17.10;102092.59;5126286;27;20189;-67
2022/03/22 10:40:29;;;;;;;22.65;16.20;;;;;;;29.71;16.23;102089.09;5128613;27;20190;-67
2022/03/22 10:42:59;;;;;;;18.55;15.30;;;;;;;27.34;17.07;102087.19;5128543;27;20190;-66
2022/03/22 10:45:28;;;;;;;19.52;14.27;;;;;;;25.45;18.29;102087.44;5127569;27;20782;-66
2022/03/22 10:47:56;;;;;;;18.52;14.93;;;;;;;29.64;15.66;102087.53;5128359;27;20209;-66
2022/03/22 10:50:25;;;;;;;19.35;14.43;;;;;;;27.73;18.14;102084.41;5125661;27;20205;-64
2022/03/22 10:52:55;;;;;;;15.65;13.95;;;;;;;28.34;17.23;102079.00;5119824;27;20351;-64
2022/03/22 10:58:08;;;;;;;15.90;13.48;;;;;;;31.14;14.08;102077.44;5126079;27;20292;-65
2022/03/22 11:00:37;;;;;;;17.27;13.65;;;;;;;30.47;14.74;102081.81;5130064;27;20276;-66
2022/03/22 11:03:06;;;;;;;21.63;15.63;;;;;;;30.98;14.80;102073.56;5127984;27;20564;-66
2022/03/22 11:05:34;;;;;;;18.73;13.73;;;;;;;25.82;17.24;102086.84;5126689;27;20208;-65
2022/03/22 11:08:03;;;;;;;16.00;13.27;;;;;;;23.11;19.91;102080.09;5124033;27;20206;-65
2022/03/22 11:10:30;;;;;;;28.05;14.50;;;;;;;25.13;18.43;102077.34;5125332;27;20301;-67
2022/03/22 11:12:59;;;;;;;14.85;13.30;;;;;;;25.77;18.39;102078.47;5127763;27;20654;-68
2022/03/22 11:15:41;;;;;;;16.20;13.30;;;;;;;22.24;20.03;102079.19;5127287;27;20248;-68
2022/03/22 11:18:10;;;;;;;15.18;13.57;;;;;;;22.94;20.76;102075.97;5127871;27;20284;-68
2022/03/22 11:20:48;;;;;;;15.60;13.70;;;;;;;23.90;19.49;102065.44;5129811;27;20676;-68
2022/03/22 11:23:20;;;;;;;17.00;14.32;;;;;;;23.88;20.91;102059.38;5127675;27;20205;-67
2022/03/22 11:25:47;;;;;;;22.42;14.13;;;;;;;24.25;20.88;102060.06;5127885;27;20236;-68
2022/03/22 11:28:19;;;;;;;15.40;13.43;;;;;;;23.87;20.18;102056.88;5108482;27;20226;-68
2022/03/22 11:30:49;;;;;;;19.60;13.85;;;;;;;23.80;21.17;102062.25;5122263;27;20246;-68
2022/03/22 11:36:15;;;;;;;15.43;13.82;;;;;;;23.57;20.18;102062.47;5128754;27;20319;-67
2022/03/22 11:38:45;;;;;;;18.20;14.68;;;;;;;23.56;20.52;102049.13;5127742;27;20271;-66
2022/03/22 11:44:11;;;;;;;19.95;15.43;;;;;;;24.44;21.23;102040.38;5125085;27;20197;-67
2022/03/22 11:46:40;;;;;;;19.92;15.40;;;;;;;23.94;21.25;102038.78;5127858;27;20338;-65
2022/03/22 11:49:16;;;;;;;19.17;14.65;;;;;;;24.19;20.93;102042.69;5124300;27;20227;-66
2022/03/22 11:51:52;;;;;;;15.80;13.65;;;;;;;23.48;20.36;102035.72;5128567;27;20200;-67
2022/03/22 11:54:21;;;;;;;16.40;14.48;;;;;;;23.30;20.16;102038.03;5128270;27;20577;-68
2022/03/22 11:56:51;;;;;;;19.08;14.23;;;;;;;23.67;20.77;102039.63;5127275;27;20232;-68
2022/03/22 11:59:20;;;;;;;17.55;15.25;;;;;;;23.13;21.42;102034.75;5128087;27;20208;-68
2022/03/22 12:02:04;;;;;;;16.55;14.77;;;;;;;21.81;22.20;102030.31;5129594;27;20653;-68